createdAt,value
2018-09-08T00:01:39.093Z,75.76
2018-09-08T00:03:51.349Z,76.02
2018-09-08T00:06:03.571Z,76.46
2018-09-08T00:08:15.778Z,76.18
2018-09-08T00:10:28.055Z,77.10
2018-09-08T00:12:40.324Z,76.15
2018-09-08T00:14:52.027Z,77.26
2018-09-08T00:17:10.105Z,77.07
2018-09-08T00:19:28.034Z,76.91
2018-09-08T00:21:46.044Z,77.23
2018-09-08T00:24:03.887Z,77.12
2018-09-08T00:26:21.850Z,76.78
2018-09-08T00:28:39.911Z,76.37
2018-09-08T00:30:52.206Z,76.55
2018-09-08T00:33:04.423Z,77.19
2018-09-08T00:35:16.606Z,77.15
2018-09-08T00:37:28.836Z,76.42
2018-09-08T00:39:42.208Z,77.12
2018-09-08T00:41:54.396Z,76.62
2018-09-08T00:44:06.666Z,77.33
2018-09-08T00:46:18.911Z,77.35
2018-09-08T00:48:31.243Z,78.57
2018-09-08T00:50:43.506Z,77.97
2018-09-08T00:52:55.751Z,77.74
2018-09-08T00:55:07.966Z,78.06
2018-09-08T00:57:20.152Z,78.53
2018-09-08T00:59:32.411Z,77.54
2018-09-08T01:01:44.668Z,77.51
2018-09-08T01:03:56.918Z,78.00
2018-09-08T01:06:09.112Z,78.16
2018-09-08T01:08:21.312Z,77.90
2018-09-08T01:10:33.530Z,77.91
2018-09-08T01:12:45.749Z,77.36
2018-09-08T01:14:58.174Z,77.77
2018-09-08T01:17:10.362Z,77.58
2018-09-08T01:19:22.589Z,77.42
2018-09-08T01:21:34.951Z,77.48
2018-09-08T01:23:51.132Z,77.49
2018-09-08T01:26:03.583Z,77.63
2018-09-08T01:28:15.754Z,77.99
2018-09-08T01:30:27.979Z,77.77
2018-09-08T01:32:40.248Z,76.74
2018-09-08T01:34:52.499Z,76.52
2018-09-08T01:37:04.763Z,76.49
2018-09-08T01:39:16.997Z,76.20
2018-09-08T01:41:29.263Z,76.40
2018-09-08T01:43:41.468Z,76.33
2018-09-08T01:45:53.677Z,76.29
2018-09-08T01:48:05.856Z,76.27
2018-09-08T01:50:18.136Z,75.50
2018-09-08T01:52:30.351Z,76.17
2018-09-08T01:54:42.566Z,75.90
2018-09-08T01:56:54.767Z,76.30
2018-09-08T01:59:07.045Z,76.15
2018-09-08T02:01:19.255Z,76.18
2018-09-08T02:03:32.496Z,76.69
2018-09-08T02:05:44.711Z,76.45
2018-09-08T02:07:56.923Z,76.48
2018-09-08T02:10:09.122Z,76.77
2018-09-08T02:12:21.351Z,77.07
2018-09-08T02:14:33.588Z,76.70
2018-09-08T02:16:45.821Z,76.83
2018-09-08T02:18:58.081Z,77.57
2018-09-08T02:21:10.303Z,76.71
2018-09-08T02:23:22.499Z,77.95
2018-09-08T02:25:34.860Z,77.89
2018-09-08T02:27:47.087Z,77.57
2018-09-08T02:29:59.476Z,78.07
2018-09-08T02:32:11.713Z,79.28
2018-09-08T02:34:23.899Z,78.79
2018-09-08T02:36:36.115Z,78.64
2018-09-08T02:38:48.305Z,78.52
2018-09-08T02:41:00.478Z,78.25
2018-09-08T02:43:12.694Z,78.60
2018-09-08T02:45:24.896Z,78.82
2018-09-08T02:47:37.113Z,79.39
2018-09-08T02:50:00.688Z,78.71
2018-09-08T02:52:11.823Z,78.98
2018-09-08T02:54:22.950Z,79.45
2018-09-08T02:56:34.075Z,78.33
2018-09-08T02:58:45.239Z,78.80
2018-09-08T03:00:56.347Z,79.39
2018-09-08T03:03:07.503Z,79.43
2018-09-08T03:05:18.688Z,78.89
2018-09-08T03:07:29.826Z,78.28
2018-09-08T03:09:43.170Z,78.25
2018-09-08T03:11:54.325Z,79.24
2018-09-08T03:14:05.454Z,78.29
2018-09-08T03:16:16.583Z,78.27
2018-09-08T03:18:27.762Z,79.02
2018-09-08T03:20:38.898Z,78.89
2018-09-08T03:22:50.024Z,79.04
2018-09-08T03:25:01.194Z,78.23
2018-09-08T03:27:12.331Z,79.05
2018-09-08T03:29:23.492Z,78.47
2018-09-08T03:31:34.630Z,79.37
2018-09-08T03:33:45.804Z,79.71
2018-09-08T03:35:56.966Z,79.24
2018-09-08T03:38:08.095Z,79.25
2018-09-08T03:40:19.236Z,79.29
2018-09-08T03:42:30.366Z,79.22
2018-09-08T03:44:41.521Z,79.99
2018-09-08T03:46:52.659Z,80.20
2018-09-08T03:49:03.810Z,80.27
2018-09-08T03:51:14.956Z,80.20
2018-09-08T03:53:26.090Z,80.08
2018-09-08T03:55:37.346Z,79.37
2018-09-08T03:57:48.477Z,79.29
2018-09-08T03:59:59.631Z,79.23
2018-09-08T04:02:10.779Z,79.71
2018-09-08T04:04:22.989Z,79.09
2018-09-08T04:06:35.237Z,79.02
2018-09-08T04:08:47.434Z,79.17
2018-09-08T04:10:59.676Z,80.56
2018-09-08T04:13:11.920Z,79.94
2018-09-08T04:15:24.131Z,80.41
2018-09-08T04:17:36.339Z,80.26
2018-09-08T04:19:48.627Z,79.61
2018-09-08T04:22:00.867Z,80.35
2018-09-08T04:24:13.095Z,79.88
2018-09-08T04:26:25.336Z,79.93
2018-09-08T04:28:37.673Z,79.40
2018-09-08T04:30:49.891Z,80.15
2018-09-08T04:33:02.130Z,79.63
2018-09-08T04:35:14.383Z,79.50
2018-09-08T04:37:26.599Z,79.99
2018-09-08T04:39:38.800Z,79.31
2018-09-08T04:41:51.045Z,79.07
2018-09-08T04:44:03.338Z,79.97
2018-09-08T04:46:15.560Z,79.21
2018-09-08T04:48:27.762Z,79.09
2018-09-08T04:50:40.229Z,79.20
2018-09-08T04:52:52.430Z,79.37
2018-09-08T04:55:04.844Z,78.73
2018-09-08T04:57:17.089Z,79.27
2018-09-08T04:59:29.283Z,80.04
2018-09-08T05:01:41.492Z,80.09
2018-09-08T05:03:53.728Z,79.22
2018-09-08T05:06:05.902Z,79.17
2018-09-08T05:08:18.099Z,79.84
2018-09-08T05:10:30.463Z,79.54
2018-09-08T05:12:42.674Z,80.50
2018-09-08T05:14:54.842Z,79.96
2018-09-08T05:17:07.087Z,80.47
2018-09-08T05:19:19.249Z,79.60
2018-09-08T05:21:31.446Z,80.30
2018-09-08T05:23:43.647Z,79.68
2018-09-08T05:25:55.835Z,80.40
2018-09-08T05:28:08.041Z,79.73
2018-09-08T05:30:20.270Z,80.44
2018-09-08T05:32:32.470Z,80.44
2018-09-08T05:34:44.679Z,80.32
2018-09-08T05:36:56.914Z,80.25
2018-09-08T05:39:09.161Z,79.50
2018-09-08T05:41:21.371Z,79.82
2018-09-08T05:43:33.607Z,78.79
2018-09-08T05:45:45.805Z,78.66
2018-09-08T05:47:58.038Z,78.64
2018-09-08T05:50:10.267Z,78.45
2018-09-08T05:52:22.509Z,78.10
2018-09-08T05:54:34.743Z,77.46
2018-09-08T05:56:46.996Z,77.64
2018-09-08T05:58:59.262Z,77.46
2018-09-08T06:01:11.488Z,77.08
2018-09-08T06:03:23.717Z,77.38
2018-09-08T06:05:35.994Z,76.35
2018-09-08T06:07:48.272Z,75.05
2018-09-08T06:10:00.529Z,74.79
2018-09-08T06:12:12.723Z,74.51
2018-09-08T06:14:25.080Z,74.10
2018-09-08T06:16:37.307Z,73.82
2018-09-08T06:18:49.572Z,72.92
2018-09-08T06:21:01.813Z,71.32
2018-09-08T06:23:14.113Z,73.03
2018-09-08T06:25:26.445Z,72.18
2018-09-08T06:27:38.629Z,70.45
2018-09-08T06:29:50.858Z,70.33
2018-09-08T06:32:03.121Z,69.39
2018-09-08T06:34:15.457Z,69.97
2018-09-08T06:36:27.712Z,69.43
2018-09-08T06:38:39.983Z,69.54
2018-09-08T06:40:52.270Z,68.02
2018-09-08T06:43:04.722Z,68.95
2018-09-08T06:45:17.002Z,66.56
2018-09-08T06:47:29.230Z,66.53
2018-09-08T06:49:41.498Z,65.45
2018-09-08T06:51:53.726Z,65.45
2018-09-08T06:54:05.959Z,62.71
2018-09-08T06:56:18.184Z,62.64
2018-09-08T06:58:30.732Z,61.93
2018-09-08T07:00:43.083Z,60.53
2018-09-08T07:02:55.307Z,59.48
2018-09-08T07:05:07.613Z,58.08
2018-09-08T07:07:19.862Z,59.32
2018-09-08T07:09:32.123Z,59.18
2018-09-08T07:11:44.350Z,57.48
2018-09-08T07:13:56.553Z,57.49
2018-09-08T07:16:08.883Z,57.91
2018-09-08T07:18:21.145Z,55.99
2018-09-08T07:20:33.342Z,55.33
2018-09-08T07:22:45.650Z,55.11
2018-09-08T07:24:57.940Z,54.27
2018-09-08T07:27:10.243Z,56.41
2018-09-08T07:29:22.457Z,55.52
2018-09-08T07:31:34.688Z,55.57
2018-09-08T07:33:46.879Z,53.92
2018-09-08T07:35:59.080Z,54.02
2018-09-08T07:38:11.304Z,52.82
2018-09-08T07:40:23.609Z,53.70
2018-09-08T07:42:35.844Z,55.00
2018-09-08T07:44:48.094Z,55.33
2018-09-08T07:47:00.377Z,54.08
2018-09-08T07:49:12.620Z,53.40
2018-09-08T07:51:24.844Z,53.90
2018-09-08T07:53:37.166Z,53.05
2018-09-08T07:55:49.343Z,52.93
2018-09-08T07:58:01.616Z,52.51
2018-09-08T08:00:13.898Z,49.80
2018-09-08T08:02:26.177Z,50.84
2018-09-08T08:04:38.471Z,50.99
2018-09-08T08:06:50.760Z,51.50
2018-09-08T08:09:03.822Z,50.98
2018-09-08T08:11:16.040Z,49.64
2018-09-08T08:13:28.299Z,51.56
2018-09-08T08:15:40.512Z,50.50
2018-09-08T08:17:52.731Z,49.97
2018-09-08T08:20:05.063Z,50.65
2018-09-08T08:22:17.359Z,50.19
2018-09-08T08:24:29.619Z,48.07
2018-09-08T08:26:41.858Z,48.71
2018-09-08T08:28:54.109Z,50.03
2018-09-08T08:31:06.418Z,50.78
2018-09-08T08:33:18.690Z,49.51
2018-09-08T08:35:30.919Z,49.54
2018-09-08T08:37:43.131Z,48.29
2018-09-08T08:39:55.371Z,48.65
2018-09-08T08:42:07.591Z,47.73
2018-09-08T08:44:19.823Z,49.05
2018-09-08T08:46:32.081Z,48.23
2018-09-08T08:48:44.315Z,47.53
2018-09-08T08:51:08.038Z,47.95
2018-09-08T08:53:31.792Z,48.71
2018-09-08T08:55:44.038Z,46.42
2018-09-08T08:57:56.255Z,48.49
2018-09-08T09:00:08.641Z,48.37
2018-09-08T09:02:20.901Z,47.55
2018-09-08T09:04:33.218Z,47.15
2018-09-08T09:06:45.455Z,45.03
2018-09-08T09:08:57.701Z,45.35
2018-09-08T09:11:09.960Z,45.57
2018-09-08T09:13:22.247Z,44.06
2018-09-08T09:15:34.823Z,46.99
2018-09-08T09:17:46.755Z,47.00
2018-09-08T09:20:10.264Z,45.56
2018-09-08T09:22:33.902Z,46.60
2018-09-08T09:24:54.409Z,45.60
2018-09-08T09:27:06.349Z,45.77
2018-09-08T09:29:18.947Z,45.17
2018-09-08T09:31:31.208Z,44.27
2018-09-08T09:33:43.446Z,44.54
2018-09-08T09:35:55.691Z,43.77
2018-09-08T09:38:07.922Z,44.89
2018-09-08T09:40:21.050Z,44.29
2018-09-08T09:42:33.255Z,45.53
2018-09-08T09:44:45.451Z,43.44
2018-09-08T09:46:57.690Z,42.80
2018-09-08T09:49:09.972Z,44.57
2018-09-08T09:51:22.293Z,44.74
2018-09-08T09:53:34.451Z,43.80
2018-09-08T09:55:46.734Z,42.79
2018-09-08T09:57:58.992Z,42.78
2018-09-08T10:00:16.875Z,42.79
2018-09-08T10:02:38.580Z,42.71
2018-09-08T10:04:50.811Z,42.60
2018-09-08T10:07:07.790Z,42.46
2018-09-08T10:09:20.037Z,41.91
2018-09-08T10:11:32.274Z,43.22
2018-09-08T10:13:44.526Z,41.31
2018-09-08T10:15:56.734Z,45.10
2018-09-08T10:18:09.047Z,41.90
2018-09-08T10:20:22.367Z,43.75
2018-09-08T10:22:34.618Z,42.61
2018-09-08T10:24:46.839Z,41.75
2018-09-08T10:26:59.117Z,41.81
2018-09-08T10:29:11.362Z,43.84
2018-09-08T10:31:23.684Z,41.51
2018-09-08T10:33:35.952Z,41.06
2018-09-08T10:35:48.180Z,42.58
2018-09-08T10:38:00.406Z,41.47
2018-09-08T10:40:13.135Z,40.02
2018-09-08T10:42:25.307Z,41.34
2018-09-08T10:44:37.530Z,42.18
2018-09-08T10:46:49.853Z,40.16
2018-09-08T10:49:02.059Z,41.82
2018-09-08T10:52:50.522Z,40.67
2018-09-08T10:55:02.782Z,40.72
2018-09-08T10:57:15.023Z,39.87
2018-09-08T10:59:27.276Z,40.71
2018-09-08T11:01:39.687Z,41.64
2018-09-08T11:03:51.832Z,41.48
2018-09-08T11:06:04.063Z,40.55
2018-09-08T11:08:16.332Z,41.28
2018-09-08T11:10:28.529Z,40.66
2018-09-08T11:12:40.779Z,39.84
2018-09-08T11:14:52.991Z,40.69
2018-09-08T11:17:05.227Z,40.46
2018-09-08T11:19:17.457Z,40.07
2018-09-08T11:21:29.670Z,40.65
2018-09-08T11:23:41.932Z,41.92
2018-09-08T11:25:54.134Z,42.30
2018-09-08T11:28:06.383Z,39.90
2018-09-08T11:30:18.590Z,39.53
2018-09-08T11:32:30.781Z,39.98
2018-09-08T11:34:43.002Z,39.72
2018-09-08T11:36:55.226Z,39.14
2018-09-08T11:39:08.415Z,40.17
2018-09-08T11:41:20.622Z,39.78
2018-09-08T11:43:32.844Z,40.05
2018-09-08T11:45:45.107Z,40.33
2018-09-08T11:47:57.363Z,39.13
2018-09-08T11:50:09.590Z,41.31
2018-09-08T11:52:21.817Z,40.12
2018-09-08T11:54:34.099Z,39.29
2018-09-08T11:56:46.327Z,40.47
2018-09-08T11:58:58.531Z,39.55
2018-09-08T12:01:10.831Z,39.22
2018-09-08T12:03:23.107Z,38.11
2018-09-08T12:05:35.484Z,38.83
2018-09-08T12:07:47.845Z,40.97
2018-09-08T12:10:00.056Z,40.20
2018-09-08T12:12:12.295Z,37.25
2018-09-08T12:14:24.585Z,39.68
2018-09-08T12:16:36.944Z,40.85
2018-09-08T12:18:49.177Z,39.87
2018-09-08T12:21:01.477Z,39.66
2018-09-08T12:23:13.694Z,39.31
2018-09-08T12:25:25.894Z,40.44
2018-09-08T12:27:38.150Z,39.09
2018-09-08T12:29:50.332Z,40.18
2018-09-08T12:32:02.576Z,40.37
2018-09-08T12:34:14.819Z,39.93
2018-09-08T12:36:27.043Z,38.92
2018-09-08T12:38:39.295Z,39.39
2018-09-08T12:40:51.466Z,40.61
2018-09-08T12:43:03.726Z,40.00
2018-09-08T12:45:15.974Z,40.02
2018-09-08T12:47:28.245Z,39.86
2018-09-08T12:49:40.543Z,40.84
2018-09-08T12:51:52.798Z,39.73
2018-09-08T12:54:05.050Z,40.66
2018-09-08T12:56:17.307Z,41.70
2018-09-08T12:58:29.528Z,41.44
2018-09-08T13:00:41.789Z,40.35
2018-09-08T13:02:54.067Z,41.37
2018-09-08T13:05:06.403Z,41.26
2018-09-08T13:07:18.642Z,42.16
2018-09-08T13:09:30.912Z,41.36
2018-09-08T13:11:43.172Z,42.25
2018-09-08T13:13:55.418Z,41.78
2018-09-08T13:16:07.656Z,41.72
2018-09-08T13:18:19.868Z,41.42
2018-09-08T13:20:32.092Z,42.05
2018-09-08T13:22:44.366Z,40.11
2018-09-08T13:24:56.915Z,40.73
2018-09-08T13:27:09.151Z,40.48
2018-09-08T13:29:21.402Z,40.51
2018-09-08T13:31:33.641Z,40.93
2018-09-08T13:33:45.942Z,41.93
2018-09-08T13:35:58.102Z,41.86
2018-09-08T13:38:10.349Z,42.43
2018-09-08T13:40:22.624Z,41.81
2018-09-08T13:42:34.854Z,41.50
2018-09-08T13:44:47.175Z,41.59
2018-09-08T13:46:59.462Z,40.98
2018-09-08T13:49:11.607Z,40.55
2018-09-08T13:51:23.899Z,40.44
2018-09-08T13:53:36.146Z,40.48
2018-09-08T13:55:48.386Z,40.10
2018-09-08T13:58:00.617Z,40.49
2018-09-08T14:00:12.921Z,40.59
2018-09-08T14:02:25.183Z,40.86
2018-09-08T14:04:37.480Z,40.81
2018-09-08T14:06:49.695Z,40.87
2018-09-08T14:09:02.031Z,40.11
2018-09-08T14:11:14.244Z,40.00
2018-09-08T14:13:26.529Z,39.79
2018-09-08T14:15:38.746Z,40.86
2018-09-08T14:17:50.968Z,40.03
2018-09-08T14:20:03.233Z,40.27
2018-09-08T14:22:15.447Z,40.48
2018-09-08T14:24:27.765Z,41.21
2018-09-08T14:26:40.014Z,40.41
2018-09-08T14:28:52.203Z,42.27
2018-09-08T14:31:04.491Z,40.26
2018-09-08T14:33:16.754Z,40.66
2018-09-08T14:35:29.021Z,39.90
2018-09-08T14:37:42.782Z,40.10
2018-09-08T14:39:55.027Z,41.77
2018-09-08T14:42:07.279Z,41.40
2018-09-08T14:44:19.539Z,41.91
2018-09-08T14:46:31.800Z,40.28
2018-09-08T14:48:44.014Z,43.20
2018-09-08T14:50:56.281Z,42.40
2018-09-08T14:53:08.494Z,42.13
2018-09-08T14:55:20.764Z,43.82
2018-09-08T14:57:32.963Z,42.29
2018-09-08T14:59:45.160Z,40.97
2018-09-08T15:01:57.398Z,40.79
2018-09-08T15:04:09.638Z,42.31
2018-09-08T15:06:21.870Z,43.62
2018-09-08T15:08:34.127Z,43.32
2018-09-08T15:10:46.364Z,42.06
2018-09-08T15:12:58.646Z,41.13
2018-09-08T15:15:10.937Z,40.58
2018-09-08T15:17:23.176Z,40.17
2018-09-08T15:19:35.471Z,40.30
2018-09-08T15:21:47.686Z,38.71
2018-09-08T15:23:59.952Z,39.15
2018-09-08T15:26:12.244Z,39.53
2018-09-08T15:28:24.545Z,41.89
2018-09-08T15:30:36.760Z,42.60
2018-09-08T15:32:49.080Z,41.56
2018-09-08T15:35:01.279Z,42.53
2018-09-08T15:37:13.518Z,41.07
2018-09-08T15:39:25.751Z,42.13
2018-09-08T15:41:38.008Z,43.34
2018-09-08T15:43:50.215Z,43.53
2018-09-08T15:46:02.486Z,42.78
2018-09-08T15:48:14.663Z,42.31
2018-09-08T15:50:26.922Z,41.65
2018-09-08T15:52:39.198Z,40.87
2018-09-08T15:54:51.535Z,42.72
2018-09-08T15:57:03.858Z,42.12
2018-09-08T15:59:16.126Z,41.06
2018-09-08T16:01:28.413Z,40.38
2018-09-08T16:03:40.687Z,40.91
2018-09-08T16:05:52.960Z,40.88
2018-09-08T16:08:05.663Z,41.41
2018-09-08T16:10:17.856Z,41.14
2018-09-08T16:12:30.138Z,40.25
2018-09-08T16:14:42.379Z,40.14
2018-09-08T16:16:54.606Z,42.05
2018-09-08T16:19:06.857Z,40.52
2018-09-08T16:21:19.157Z,40.21
2018-09-08T16:23:31.347Z,40.39
2018-09-08T16:25:43.575Z,40.50
2018-09-08T16:27:55.877Z,39.77
2018-09-08T16:30:08.107Z,41.27
2018-09-08T16:32:20.345Z,40.10
2018-09-08T16:34:32.699Z,40.59
2018-09-08T16:36:44.946Z,41.28
2018-09-08T16:38:57.233Z,40.73
2018-09-08T16:41:09.452Z,39.78
2018-09-08T16:43:21.684Z,40.58
2018-09-08T16:45:33.944Z,40.63
2018-09-08T16:47:46.194Z,39.42
2018-09-08T16:49:58.557Z,40.01
2018-09-08T16:52:10.845Z,40.90
2018-09-08T16:54:23.091Z,40.99
2018-09-08T16:56:35.337Z,41.85
2018-09-08T16:58:47.612Z,42.22
2018-09-08T17:00:59.838Z,41.98
2018-09-08T17:03:12.070Z,42.54
2018-09-08T17:05:24.442Z,41.80
2018-09-08T17:07:36.663Z,42.07
2018-09-08T17:09:48.950Z,42.78
2018-09-08T17:12:01.249Z,42.28
2018-09-08T17:14:13.556Z,42.76
2018-09-08T17:16:25.933Z,43.62
2018-09-08T17:18:38.235Z,42.98
2018-09-08T17:20:50.486Z,43.28
2018-09-08T17:23:02.772Z,43.37
2018-09-08T17:25:15.036Z,43.91
2018-09-08T17:27:27.272Z,43.93
2018-09-08T17:29:39.460Z,44.82
2018-09-08T17:31:51.694Z,44.94
2018-09-08T17:34:03.937Z,44.79
2018-09-08T17:36:16.166Z,44.85
2018-09-08T17:38:28.401Z,44.42
2018-09-08T17:40:40.673Z,44.57
2018-09-08T17:42:53.012Z,44.74
2018-09-08T17:45:05.327Z,44.52
2018-09-08T17:47:17.553Z,44.47
2018-09-08T17:49:29.765Z,44.22
2018-09-08T17:51:42.020Z,47.62
2018-09-08T17:53:54.250Z,50.89
2018-09-08T17:56:06.582Z,50.68
2018-09-08T17:58:18.779Z,51.61
2018-09-08T18:00:31.110Z,52.26
2018-09-08T18:02:43.468Z,52.69
2018-09-08T18:04:55.731Z,53.37
2018-09-08T18:07:10.304Z,53.36
2018-09-08T18:09:22.543Z,52.95
2018-09-08T18:11:34.821Z,53.44
2018-09-08T18:13:47.077Z,54.42
2018-09-08T18:15:59.331Z,53.97
2018-09-08T18:18:11.574Z,55.78
2018-09-08T18:20:23.799Z,56.15
2018-09-08T18:22:36.489Z,56.83
2018-09-08T18:24:48.743Z,55.62
2018-09-08T18:27:01.008Z,54.69
2018-09-08T18:29:13.238Z,54.65
2018-09-08T18:31:25.443Z,55.59
2018-09-08T18:33:37.678Z,56.38
2018-09-08T18:35:52.406Z,55.62
2018-09-08T18:38:04.620Z,56.31
2018-09-08T18:40:16.856Z,56.73
2018-09-08T18:42:29.118Z,57.68
2018-09-08T18:44:41.381Z,58.04
2018-09-08T18:46:53.636Z,58.10
2018-09-08T18:49:05.931Z,58.12
2018-09-08T18:51:18.175Z,56.06
2018-09-08T18:53:30.426Z,56.92
2018-09-08T18:55:42.908Z,57.46
2018-09-08T18:57:55.187Z,56.95
2018-09-08T19:00:07.513Z,57.33
2018-09-08T19:02:19.756Z,57.69
2018-09-08T19:04:32.108Z,59.10
2018-09-08T19:06:44.391Z,59.52
2018-09-08T19:08:56.644Z,59.16
2018-09-08T19:11:08.982Z,58.87
2018-09-08T19:13:21.239Z,58.60
2018-09-08T19:15:33.514Z,58.53
2018-09-08T19:17:45.811Z,58.52
2018-09-08T19:20:03.891Z,59.58
2018-09-08T19:22:16.055Z,59.36
2018-09-08T19:24:34.031Z,59.81
2018-09-08T19:26:46.325Z,60.07
2018-09-08T19:29:04.107Z,59.15
2018-09-08T19:31:16.435Z,59.50
2018-09-08T19:33:28.703Z,59.51
2018-09-08T19:35:41.016Z,60.02
2018-09-08T19:37:53.254Z,60.66
2018-09-08T19:40:11.075Z,60.62
2018-09-08T19:42:23.346Z,60.85
2018-09-08T19:44:35.607Z,61.00
2018-09-08T19:46:53.418Z,61.18
2018-09-08T19:49:05.645Z,61.49
2018-09-08T19:51:18.015Z,62.13
2018-09-08T19:53:35.892Z,61.84
2018-09-08T19:55:48.230Z,63.70
2018-09-08T19:58:06.228Z,63.08
2018-09-08T20:00:18.587Z,63.48
2018-09-08T20:02:30.868Z,62.37
2018-09-08T20:04:43.070Z,62.62
2018-09-08T20:06:55.343Z,61.87
2018-09-08T20:09:07.596Z,63.15
2018-09-08T20:11:19.960Z,62.40
2018-09-08T20:13:32.361Z,62.27
2018-09-08T20:15:44.641Z,62.14
2018-09-08T20:17:56.993Z,62.92
2018-09-08T20:20:09.253Z,63.61
2018-09-08T20:22:21.496Z,62.89
2018-09-08T20:24:33.783Z,64.11
2018-09-08T20:26:46.193Z,63.56
2018-09-08T20:28:58.414Z,64.75
2018-09-08T20:31:10.559Z,64.80
2018-09-08T20:33:22.816Z,64.46
2018-09-08T20:35:35.064Z,65.26
2018-09-08T20:37:47.383Z,64.81
2018-09-08T20:39:59.730Z,64.48
2018-09-08T20:42:11.943Z,65.23
2018-09-08T20:44:24.197Z,65.17
2018-09-08T20:46:36.419Z,64.88
2018-09-08T20:48:48.702Z,64.87
2018-09-08T20:51:00.969Z,64.86
2018-09-08T20:53:13.273Z,64.86
2018-09-08T20:55:25.624Z,65.30
2018-09-08T20:57:37.878Z,64.66
2018-09-08T20:59:50.199Z,65.40
2018-09-08T21:02:02.410Z,64.51
2018-09-08T21:04:14.859Z,65.00
2018-09-08T21:06:27.155Z,64.93
2018-09-08T21:08:39.370Z,64.38
2018-09-08T21:10:51.590Z,64.04
2018-09-08T21:13:03.861Z,64.38
2018-09-08T21:15:16.168Z,63.79
2018-09-08T21:17:28.371Z,63.62
2018-09-08T21:19:40.785Z,62.98
2018-09-08T21:21:52.919Z,63.44
2018-09-08T21:24:05.211Z,62.98
2018-09-08T21:26:17.490Z,63.34
2018-09-08T21:28:29.798Z,64.77
2018-09-08T21:30:42.168Z,65.02
2018-09-08T21:32:54.387Z,65.44
2018-09-08T21:35:06.647Z,64.93
2018-09-08T21:37:18.880Z,64.18
2018-09-08T21:39:31.118Z,64.73
2018-09-08T21:41:43.391Z,65.88
2018-09-08T21:43:55.593Z,65.17
2018-09-08T21:46:07.878Z,66.08
2018-09-08T21:48:20.144Z,65.85
2018-09-08T21:50:32.595Z,66.35
2018-09-08T21:52:44.856Z,66.41
2018-09-08T21:54:57.082Z,66.88
2018-09-08T21:57:09.365Z,68.09
2018-09-08T21:59:21.582Z,67.61
2018-09-08T22:01:33.852Z,67.39
2018-09-08T22:03:46.121Z,67.81
2018-09-08T22:05:58.371Z,68.43
2018-09-08T22:08:10.662Z,67.88
2018-09-08T22:10:23.247Z,68.26
2018-09-08T22:12:35.549Z,68.93
2018-09-08T22:14:47.772Z,69.02
2018-09-08T22:17:00.034Z,69.66
2018-09-08T22:19:12.418Z,69.25
2018-09-08T22:21:24.632Z,69.33
2018-09-08T22:23:36.858Z,69.32
2018-09-08T22:25:49.094Z,69.12
2018-09-08T22:28:01.335Z,69.15
2018-09-08T22:30:13.563Z,69.38
2018-09-08T22:32:25.812Z,70.02
2018-09-08T22:34:38.011Z,70.15
2018-09-08T22:36:50.255Z,69.69
2018-09-08T22:39:03.021Z,70.49
2018-09-08T22:41:15.211Z,69.98
2018-09-08T22:43:27.474Z,69.80
2018-09-08T22:45:39.722Z,69.89
2018-09-08T22:47:51.934Z,69.40
2018-09-08T22:50:04.466Z,69.35
2018-09-08T22:52:16.674Z,69.81
2018-09-08T22:54:28.919Z,69.63
2018-09-08T22:56:41.147Z,69.85
2018-09-08T22:58:53.400Z,70.51
2018-09-08T23:01:05.708Z,70.29
2018-09-08T23:03:17.932Z,70.48
2018-09-08T23:05:30.386Z,70.36
2018-09-08T23:07:42.611Z,70.26
2018-09-08T23:09:54.830Z,70.25
2018-09-08T23:12:07.115Z,70.09
2018-09-08T23:14:19.406Z,70.76
2018-09-08T23:16:31.652Z,71.29
2018-09-08T23:18:43.893Z,70.11
2018-09-08T23:20:56.108Z,70.37
2018-09-08T23:23:08.338Z,69.75
2018-09-08T23:25:20.567Z,69.30
2018-09-08T23:27:32.853Z,70.07
2018-09-08T23:29:45.103Z,69.37
2018-09-08T23:31:57.300Z,69.39
2018-09-08T23:34:09.547Z,68.80
2018-09-08T23:36:21.809Z,69.27
2018-09-08T23:38:34.050Z,70.14
2018-09-08T23:40:46.288Z,69.48
2018-09-08T23:42:58.547Z,69.52
2018-09-08T23:45:10.794Z,69.90
2018-09-08T23:47:22.999Z,69.76
2018-09-08T23:49:35.219Z,68.82
2018-09-08T23:51:47.434Z,68.90
2018-09-08T23:53:59.630Z,69.16
2018-09-08T23:56:11.886Z,69.83
2018-09-08T23:58:24.105Z,69.88
